Saint Agatha, Maine
Current Conditions -  °F | °C
As of 9:53 PM on Thursday 18 Dec 2014 (Local Time) from KFVE Reporting Station
Overcast Overcast  
Wind Chill:   Ceiling: 1400
Heat Index: 22°   Visibility: 10mi
Dew Point: 18°   Wind: 23mph
Humidity: 85%   Direction: 330°NNW
Pressure: 29.63"   Gusts: 33mph
Location:  47.24°N, 68.31°W
Report Text: KFVE 190253Z AUTO 33020G29KT 10SM BKN014 OVC070 M06/M08 A2963 RMK AO2 PK WND 33029/0247 UPB25E30SNE25 SLP048 P0000 60000 T10561078 51008
Loading
Personal Weather Stations






























Interactive Weather Map New forecast layout! Learn more

10-Day Weather Forecast

Advertisements
Track Severe Weather on mobile